sensor_id;sensor_type;location;lat;lon;timestamp;temperature;humidity
2523;DHT22;1272;53.332;9.860;2023-04-29T00:01:54;9.80;99.90
2523;DHT22;1272;53.332;9.860;2023-04-29T00:04:26;9.70;99.90
2523;DHT22;1272;53.332;9.860;2023-04-29T00:06:52;9.70;99.90
2523;DHT22;1272;53.332;9.860;2023-04-29T00:09:18;9.70;99.90
2523;DHT22;1272;53.332;9.860;2023-04-29T00:11:44;9.70;99.90
2523;DHT22;1272;53.332;9.860;2023-04-29T00:14:11;9.70;99.90
2523;DHT22;1272;53.332;9.860;2023-04-29T00:16:37;9.70;99.90
2523;DHT22;1272;53.332;9.860;2023-04-29T00:19:03;9.70;99.90
2523;DHT22;1272;53.332;9.860;2023-04-29T00:21:28;9.70;99.90
2523;DHT22;1272;53.332;9.860;2023-04-29T00:23:54;9.60;99.90
2523;DHT22;1272;53.332;9.860;2023-04-29T00:26:20;9.60;99.90
2523;DHT22;1272;53.332;9.860;2023-04-29T00:28:46;9.60;99.90
2523;DHT22;1272;53.332;9.860;2023-04-29T00:31:12;9.50;99.90
2523;DHT22;1272;53.332;9.860;2023-04-29T00:33:38;9.50;99.90
2523;DHT22;1272;53.332;9.860;2023-04-29T00:36:05;9.60;99.90
2523;DHT22;1272;53.332;9.860;2023-04-29T00:38:31;9.50;99.90
2523;DHT22;1272;53.332;9.860;2023-04-29T00:40:57;9.50;99.90
2523;DHT22;1272;53.332;9.860;2023-04-29T00:43:23;9.50;99.90
2523;DHT22;1272;53.332;9.860;2023-04-29T00:45:49;9.50;99.90
2523;DHT22;1272;53.332;9.860;2023-04-29T00:48:15;9.50;99.90
2523;DHT22;1272;53.332;9.860;2023-04-29T00:50:41;9.50;99.90
2523;DHT22;1272;53.332;9.860;2023-04-29T00:53:07;9.40;99.90
2523;DHT22;1272;53.332;9.860;2023-04-29T00:55:34;9.40;99.90
2523;DHT22;1272;53.332;9.860;2023-04-29T00:58:01;9.40;99.90
2523;DHT22;1272;53.332;9.860;2023-04-29T01:00:29;9.30;99.90
2523;DHT22;1272;53.332;9.860;2023-04-29T01:02:55;9.30;99.90
2523;DHT22;1272;53.332;9.860;2023-04-29T01:05:22;9.40;99.90
2523;DHT22;1272;53.332;9.860;2023-04-29T01:10:54;9.30;99.90
2523;DHT22;1272;53.332;9.860;2023-04-29T01:13:50;9.40;99.90
2523;DHT22;1272;53.332;9.860;2023-04-29T01:16:37;9.40;99.90
2523;DHT22;1272;53.332;9.860;2023-04-29T01:21:46;9.40;99.90
2523;DHT22;1272;53.332;9.860;2023-04-29T01:24:14;9.40;99.90
2523;DHT22;1272;53.332;9.860;2023-04-29T01:26:42;9.50;99.90
2523;DHT22;1272;53.332;9.860;2023-04-29T01:29:23;9.50;99.90
2523;DHT22;1272;53.332;9.860;2023-04-29T01:32:05;9.40;99.90
2523;DHT22;1272;53.332;9.860;2023-04-29T01:34:43;9.40;99.90
2523;DHT22;1272;53.332;9.860;2023-04-29T01:42:21;9.40;99.90
2523;DHT22;1272;53.332;9.860;2023-04-29T01:44:48;9.40;99.90
2523;DHT22;1272;53.332;9.860;2023-04-29T01:47:16;9.40;99.90
2523;DHT22;1272;53.332;9.860;2023-04-29T01:49:42;9.40;99.90
2523;DHT22;1272;53.332;9.860;2023-04-29T01:52:07;9.40;99.90
2523;DHT22;1272;53.332;9.860;2023-04-29T01:54:33;9.40;99.90
2523;DHT22;1272;53.332;9.860;2023-04-29T01:57:02;9.40;99.90
2523;DHT22;1272;53.332;9.860;2023-04-29T01:59:27;9.40;99.90
2523;DHT22;1272;53.332;9.860;2023-04-29T02:01:53;9.40;99.90
2523;DHT22;1272;53.332;9.860;2023-04-29T02:04:21;9.40;99.90
2523;DHT22;1272;53.332;9.860;2023-04-29T02:06:46;9.40;99.90
2523;DHT22;1272;53.332;9.860;2023-04-29T02:09:12;9.40;99.90
2523;DHT22;1272;53.332;9.860;2023-04-29T02:11:38;9.40;99.90
2523;DHT22;1272;53.332;9.860;2023-04-29T02:14:03;9.30;99.90
2523;DHT22;1272;53.332;9.860;2023-04-29T02:16:29;9.40;99.90
2523;DHT22;1272;53.332;9.860;2023-04-29T02:18:55;9.30;99.90
2523;DHT22;1272;53.332;9.860;2023-04-29T02:21:20;9.40;99.90
2523;DHT22;1272;53.332;9.860;2023-04-29T02:23:46;9.40;99.90
2523;DHT22;1272;53.332;9.860;2023-04-29T02:26:12;9.40;99.90
2523;DHT22;1272;53.332;9.860;2023-04-29T02:28:39;9.40;99.90
2523;DHT22;1272;53.332;9.860;2023-04-29T02:31:05;9.30;99.90
2523;DHT22;1272;53.332;9.860;2023-04-29T02:33:32;9.40;99.90
2523;DHT22;1272;53.332;9.860;2023-04-29T02:35:57;9.40;99.90
2523;DHT22;1272;53.332;9.860;2023-04-29T02:38:24;9.30;99.90
2523;DHT22;1272;53.332;9.860;2023-04-29T02:40:49;9.40;99.90
2523;DHT22;1272;53.332;9.860;2023-04-29T02:43:15;9.40;99.90
2523;DHT22;1272;53.332;9.860;2023-04-29T02:45:41;9.40;99.90
2523;DHT22;1272;53.332;9.860;2023-04-29T02:48:07;9.30;99.90
2523;DHT22;1272;53.332;9.860;2023-04-29T02:50:32;9.30;99.90
2523;DHT22;1272;53.332;9.860;2023-04-29T02:52:58;9.40;99.90
2523;DHT22;1272;53.332;9.860;2023-04-29T02:55:24;9.40;99.90
2523;DHT22;1272;53.332;9.860;2023-04-29T02:57:51;9.40;99.90
2523;DHT22;1272;53.332;9.860;2023-04-29T03:00:17;9.30;99.90
2523;DHT22;1272;53.332;9.860;2023-04-29T03:02:43;9.40;99.90
2523;DHT22;1272;53.332;9.860;2023-04-29T03:05:11;9.40;99.90
2523;DHT22;1272;53.332;9.860;2023-04-29T03:07:37;9.30;99.90
2523;DHT22;1272;53.332;9.860;2023-04-29T03:10:03;9.30;99.90
2523;DHT22;1272;53.332;9.860;2023-04-29T03:12:29;9.30;99.90
2523;DHT22;1272;53.332;9.860;2023-04-29T03:14:55;9.40;99.90
2523;DHT22;1272;53.332;9.860;2023-04-29T03:17:21;9.30;99.90
2523;DHT22;1272;53.332;9.860;2023-04-29T03:19:47;9.30;99.90
2523;DHT22;1272;53.332;9.860;2023-04-29T03:22:12;9.30;99.90
2523;DHT22;1272;53.332;9.860;2023-04-29T03:24:38;9.30;99.90
2523;DHT22;1272;53.332;9.860;2023-04-29T03:27:04;9.30;99.90
2523;DHT22;1272;53.332;9.860;2023-04-29T03:29:30;9.30;99.90
2523;DHT22;1272;53.332;9.860;2023-04-29T03:31:56;9.30;99.90
2523;DHT22;1272;53.332;9.860;2023-04-29T03:34:23;9.30;99.90
2523;DHT22;1272;53.332;9.860;2023-04-29T03:36:49;9.30;99.90
2523;DHT22;1272;53.332;9.860;2023-04-29T03:39:18;9.20;99.90
2523;DHT22;1272;53.332;9.860;2023-04-29T03:41:46;9.20;99.90
2523;DHT22;1272;53.332;9.860;2023-04-29T03:44:11;9.20;99.90
2523;DHT22;1272;53.332;9.860;2023-04-29T03:46:37;9.20;99.90
2523;DHT22;1272;53.332;9.860;2023-04-29T03:49:03;9.20;99.90
2523;DHT22;1272;53.332;9.860;2023-04-29T03:51:28;9.20;99.90
2523;DHT22;1272;53.332;9.860;2023-04-29T03:53:54;9.30;99.90
2523;DHT22;1272;53.332;9.860;2023-04-29T03:56:24;9.30;99.90
2523;DHT22;1272;53.332;9.860;2023-04-29T03:58:52;9.20;99.90
2523;DHT22;1272;53.332;9.860;2023-04-29T04:01:18;9.20;99.90
2523;DHT22;1272;53.332;9.860;2023-04-29T04:03:44;9.30;99.90
2523;DHT22;1272;53.332;9.860;2023-04-29T04:06:10;9.20;99.90
2523;DHT22;1272;53.332;9.860;2023-04-29T04:08:36;9.20;99.90
2523;DHT22;1272;53.332;9.860;2023-04-29T04:11:01;9.20;99.90
2523;DHT22;1272;53.332;9.860;2023-04-29T04:13:28;9.20;99.90
2523;DHT22;1272;53.332;9.860;2023-04-29T04:15:54;9.20;99.90
2523;DHT22;1272;53.332;9.860;2023-04-29T04:18:20;9.10;99.90
2523;DHT22;1272;53.332;9.860;2023-04-29T04:20:46;9.10;99.90
2523;DHT22;1272;53.332;9.860;2023-04-29T04:23:12;9.10;99.90
2523;DHT22;1272;53.332;9.860;2023-04-29T04:25:43;9.10;99.90
2523;DHT22;1272;53.332;9.860;2023-04-29T04:28:09;9.10;99.90
2523;DHT22;1272;53.332;9.860;2023-04-29T04:30:34;9.00;99.90
2523;DHT22;1272;53.332;9.860;2023-04-29T04:33:00;9.00;99.90
2523;DHT22;1272;53.332;9.860;2023-04-29T04:35:27;9.00;99.90
2523;DHT22;1272;53.332;9.860;2023-04-29T04:37:52;9.00;99.90
2523;DHT22;1272;53.332;9.860;2023-04-29T04:40:18;9.10;99.90
2523;DHT22;1272;53.332;9.860;2023-04-29T04:42:44;9.00;99.90
2523;DHT22;1272;53.332;9.860;2023-04-29T04:45:10;9.10;99.90
2523;DHT22;1272;53.332;9.860;2023-04-29T04:47:36;9.10;99.90
2523;DHT22;1272;53.332;9.860;2023-04-29T04:50:02;9.10;99.90
2523;DHT22;1272;53.332;9.860;2023-04-29T04:52:28;9.10;99.90
2523;DHT22;1272;53.332;9.860;2023-04-29T04:54:54;9.10;99.90
2523;DHT22;1272;53.332;9.860;2023-04-29T04:57:20;9.00;99.90
2523;DHT22;1272;53.332;9.860;2023-04-29T04:59:46;9.00;99.90
2523;DHT22;1272;53.332;9.860;2023-04-29T05:02:11;9.00;99.90
2523;DHT22;1272;53.332;9.860;2023-04-29T05:04:37;8.90;99.90
2523;DHT22;1272;53.332;9.860;2023-04-29T05:07:03;8.90;99.90
2523;DHT22;1272;53.332;9.860;2023-04-29T05:09:28;8.90;99.90
2523;DHT22;1272;53.332;9.860;2023-04-29T05:11:54;8.90;99.90
2523;DHT22;1272;53.332;9.860;2023-04-29T05:14:20;8.90;99.90
2523;DHT22;1272;53.332;9.860;2023-04-29T05:16:46;8.90;99.90
2523;DHT22;1272;53.332;9.860;2023-04-29T05:19:12;8.90;99.90
2523;DHT22;1272;53.332;9.860;2023-04-29T05:21:37;8.90;99.90
2523;DHT22;1272;53.332;9.860;2023-04-29T05:24:03;8.80;99.90
2523;DHT22;1272;53.332;9.860;2023-04-29T05:26:29;8.80;99.90
2523;DHT22;1272;53.332;9.860;2023-04-29T05:28:55;8.80;99.90
2523;DHT22;1272;53.332;9.860;2023-04-29T05:31:21;8.80;99.90
2523;DHT22;1272;53.332;9.860;2023-04-29T05:33:46;8.80;99.90
2523;DHT22;1272;53.332;9.860;2023-04-29T05:36:12;8.90;99.90
2523;DHT22;1272;53.332;9.860;2023-04-29T05:38:38;9.00;99.90
2523;DHT22;1272;53.332;9.860;2023-04-29T05:41:03;9.00;99.90
2523;DHT22;1272;53.332;9.860;2023-04-29T05:43:29;9.00;99.90
2523;DHT22;1272;53.332;9.860;2023-04-29T05:45:55;9.00;99.90
2523;DHT22;1272;53.332;9.860;2023-04-29T05:48:21;9.10;99.90
2523;DHT22;1272;53.332;9.860;2023-04-29T05:50:46;9.20;99.90
2523;DHT22;1272;53.332;9.860;2023-04-29T05:53:13;9.20;99.90
2523;DHT22;1272;53.332;9.860;2023-04-29T05:55:39;9.30;99.90
2523;DHT22;1272;53.332;9.860;2023-04-29T05:58:05;9.20;99.90
2523;DHT22;1272;53.332;9.860;2023-04-29T06:00:33;9.30;99.90
2523;DHT22;1272;53.332;9.860;2023-04-29T06:02:59;9.40;99.90
2523;DHT22;1272;53.332;9.860;2023-04-29T06:05:25;9.40;99.90
2523;DHT22;1272;53.332;9.860;2023-04-29T06:07:51;9.50;99.90
2523;DHT22;1272;53.332;9.860;2023-04-29T06:10:17;9.50;99.90
2523;DHT22;1272;53.332;9.860;2023-04-29T06:12:42;9.50;99.90
2523;DHT22;1272;53.332;9.860;2023-04-29T06:15:08;9.50;99.90
2523;DHT22;1272;53.332;9.860;2023-04-29T06:17:34;9.60;99.90
2523;DHT22;1272;53.332;9.860;2023-04-29T06:20:00;9.60;99.90
2523;DHT22;1272;53.332;9.860;2023-04-29T06:22:26;9.70;99.90
2523;DHT22;1272;53.332;9.860;2023-04-29T06:24:52;9.70;99.90
2523;DHT22;1272;53.332;9.860;2023-04-29T06:27:17;9.80;99.90
2523;DHT22;1272;53.332;9.860;2023-04-29T06:29:43;9.80;99.90
2523;DHT22;1272;53.332;9.860;2023-04-29T06:32:09;9.80;99.90
2523;DHT22;1272;53.332;9.860;2023-04-29T06:34:34;9.90;99.90
2523;DHT22;1272;53.332;9.860;2023-04-29T06:37:01;9.90;99.90
2523;DHT22;1272;53.332;9.860;2023-04-29T06:39:27;9.90;99.90
2523;DHT22;1272;53.332;9.860;2023-04-29T06:41:52;9.90;99.90
2523;DHT22;1272;53.332;9.860;2023-04-29T06:44:18;10.00;99.90
2523;DHT22;1272;53.332;9.860;2023-04-29T06:46:44;10.00;99.90
2523;DHT22;1272;53.332;9.860;2023-04-29T06:49:10;10.10;99.90
2523;DHT22;1272;53.332;9.860;2023-04-29T06:51:36;10.20;99.90
2523;DHT22;1272;53.332;9.860;2023-04-29T06:54:03;10.30;99.90
2523;DHT22;1272;53.332;9.860;2023-04-29T06:56:28;10.40;99.90
2523;DHT22;1272;53.332;9.860;2023-04-29T06:58:54;10.40;99.90
2523;DHT22;1272;53.332;9.860;2023-04-29T07:01:20;10.50;99.90
2523;DHT22;1272;53.332;9.860;2023-04-29T07:03:46;10.50;99.90
2523;DHT22;1272;53.332;9.860;2023-04-29T07:06:12;10.50;99.90
2523;DHT22;1272;53.332;9.860;2023-04-29T07:08:37;10.60;99.90
2523;DHT22;1272;53.332;9.860;2023-04-29T07:11:04;10.60;99.90
2523;DHT22;1272;53.332;9.860;2023-04-29T07:13:29;10.60;99.90
2523;DHT22;1272;53.332;9.860;2023-04-29T07:15:55;10.60;99.90
2523;DHT22;1272;53.332;9.860;2023-04-29T07:18:21;10.70;99.90
2523;DHT22;1272;53.332;9.860;2023-04-29T07:20:47;10.80;99.90
2523;DHT22;1272;53.332;9.860;2023-04-29T07:23:14;10.80;99.90
2523;DHT22;1272;53.332;9.860;2023-04-29T07:25:40;10.90;99.90
2523;DHT22;1272;53.332;9.860;2023-04-29T07:28:06;11.00;99.90
2523;DHT22;1272;53.332;9.860;2023-04-29T07:30:33;11.00;99.90
2523;DHT22;1272;53.332;9.860;2023-04-29T07:32:59;11.00;99.90
2523;DHT22;1272;53.332;9.860;2023-04-29T07:35:25;10.90;99.90
2523;DHT22;1272;53.332;9.860;2023-04-29T07:37:51;11.00;99.90
2523;DHT22;1272;53.332;9.860;2023-04-29T07:40:17;11.00;99.90
2523;DHT22;1272;53.332;9.860;2023-04-29T07:42:43;11.10;99.90
2523;DHT22;1272;53.332;9.860;2023-04-29T07:45:09;11.10;99.90
2523;DHT22;1272;53.332;9.860;2023-04-29T07:47:35;11.20;99.90
2523;DHT22;1272;53.332;9.860;2023-04-29T07:50:01;11.30;99.90
2523;DHT22;1272;53.332;9.860;2023-04-29T07:52:26;11.30;99.90
2523;DHT22;1272;53.332;9.860;2023-04-29T07:54:52;11.30;99.90
2523;DHT22;1272;53.332;9.860;2023-04-29T07:57:20;11.20;91.60
2523;DHT22;1272;53.332;9.860;2023-04-29T07:59:49;11.20;99.90
2523;DHT22;1272;53.332;9.860;2023-04-29T08:02:15;11.20;72.20
2523;DHT22;1272;53.332;9.860;2023-04-29T08:04:41;11.10;62.50
2523;DHT22;1272;53.332;9.860;2023-04-29T08:07:07;11.10;99.90
2523;DHT22;1272;53.332;9.860;2023-04-29T08:09:33;11.10;56.20
2523;DHT22;1272;53.332;9.860;2023-04-29T08:11:59;11.10;41.60
2523;DHT22;1272;53.332;9.860;2023-04-29T08:14:26;11.10;87.70
2523;DHT22;1272;53.332;9.860;2023-04-29T08:16:52;11.20;82.40
2523;DHT22;1272;53.332;9.860;2023-04-29T08:19:18;11.20;17.70
2523;DHT22;1272;53.332;9.860;2023-04-29T08:21:46;11.20;70.20
2523;DHT22;1272;53.332;9.860;2023-04-29T08:24:11;11.40;1.00
2523;DHT22;1272;53.332;9.860;2023-04-29T08:26:39;11.50;1.00
2523;DHT22;1272;53.332;9.860;2023-04-29T08:29:05;11.50;1.00
2523;DHT22;1272;53.332;9.860;2023-04-29T08:31:31;11.50;1.00
2523;DHT22;1272;53.332;9.860;2023-04-29T08:33:57;11.50;1.00
2523;DHT22;1272;53.332;9.860;2023-04-29T08:36:23;11.60;1.00
2523;DHT22;1272;53.332;9.860;2023-04-29T08:38:49;11.80;1.00
2523;DHT22;1272;53.332;9.860;2023-04-29T08:41:17;11.90;1.00
2523;DHT22;1272;53.332;9.860;2023-04-29T08:43:43;11.90;60.00
2523;DHT22;1272;53.332;9.860;2023-04-29T08:46:09;11.90;99.90
2523;DHT22;1272;53.332;9.860;2023-04-29T08:48:36;12.00;1.00
2523;DHT22;1272;53.332;9.860;2023-04-29T08:51:02;12.10;99.90
2523;DHT22;1272;53.332;9.860;2023-04-29T08:53:28;12.20;1.00
2523;DHT22;1272;53.332;9.860;2023-04-29T08:55:54;12.30;1.00
2523;DHT22;1272;53.332;9.860;2023-04-29T08:58:24;12.30;99.90
2523;DHT22;1272;53.332;9.860;2023-04-29T09:00:51;12.30;99.90
2523;DHT22;1272;53.332;9.860;2023-04-29T09:03:39;12.40;1.00
2523;DHT22;1272;53.332;9.860;2023-04-29T09:06:10;12.60;99.90
2523;DHT22;1272;53.332;9.860;2023-04-29T09:08:36;12.60;1.00
2523;DHT22;1272;53.332;9.860;2023-04-29T09:11:04;12.60;74.70
2523;DHT22;1272;53.332;9.860;2023-04-29T09:13:33;12.60;1.00
2523;DHT22;1272;53.332;9.860;2023-04-29T09:15:59;12.70;1.00
2523;DHT22;1272;53.332;9.860;2023-04-29T09:18:57;12.70;1.00
2523;DHT22;1272;53.332;9.860;2023-04-29T09:21:25;12.90;99.90
2523;DHT22;1272;53.332;9.860;2023-04-29T09:23:53;13.00;1.00
2523;DHT22;1272;53.332;9.860;2023-04-29T09:26:19;13.10;1.00
2523;DHT22;1272;53.332;9.860;2023-04-29T09:28:46;13.20;1.00
2523;DHT22;1272;53.332;9.860;2023-04-29T09:31:12;13.30;1.00
2523;DHT22;1272;53.332;9.860;2023-04-29T09:33:55;13.30;99.90
2523;DHT22;1272;53.332;9.860;2023-04-29T09:36:48;13.40;99.90
2523;DHT22;1272;53.332;9.860;2023-04-29T09:39:19;13.60;1.00
2523;DHT22;1272;53.332;9.860;2023-04-29T09:44:18;13.70;1.00
2523;DHT22;1272;53.332;9.860;2023-04-29T09:49:27;14.00;99.90
2523;DHT22;1272;53.332;9.860;2023-04-29T09:52:00;14.00;99.90
2523;DHT22;1272;53.332;9.860;2023-04-29T09:54:28;14.10;76.90
2523;DHT22;1272;53.332;9.860;2023-04-29T09:56:55;14.30;33.60
2523;DHT22;1272;53.332;9.860;2023-04-29T09:59:22;14.30;59.80
2523;DHT22;1272;53.332;9.860;2023-04-29T10:01:55;14.50;1.00
2523;DHT22;1272;53.332;9.860;2023-04-29T10:04:26;14.40;1.00
2523;DHT22;1272;53.332;9.860;2023-04-29T10:06:53;14.40;1.00
2523;DHT22;1272;53.332;9.860;2023-04-29T10:09:20;14.60;1.00
2523;DHT22;1272;53.332;9.860;2023-04-29T10:11:51;14.70;1.00
2523;DHT22;1272;53.332;9.860;2023-04-29T10:14:20;14.90;1.00
2523;DHT22;1272;53.332;9.860;2023-04-29T10:16:46;15.00;1.00
2523;DHT22;1272;53.332;9.860;2023-04-29T10:21:59;14.90;1.00
2523;DHT22;1272;53.332;9.860;2023-04-29T10:24:30;15.00;99.90
2523;DHT22;1272;53.332;9.860;2023-04-29T10:26:57;15.10;1.00
2523;DHT22;1272;53.332;9.860;2023-04-29T10:29:24;15.20;1.00
2523;DHT22;1272;53.332;9.860;2023-04-29T10:31:53;15.40;99.90
2523;DHT22;1272;53.332;9.860;2023-04-29T10:34:21;15.40;99.90
2523;DHT22;1272;53.332;9.860;2023-04-29T10:36:48;15.40;99.90
2523;DHT22;1272;53.332;9.860;2023-04-29T10:39:31;15.40;99.90
2523;DHT22;1272;53.332;9.860;2023-04-29T10:42:02;15.60;99.90
2523;DHT22;1272;53.332;9.860;2023-04-29T10:44:30;15.50;99.90
2523;DHT22;1272;53.332;9.860;2023-04-29T10:47:17;15.50;1.00
2523;DHT22;1272;53.332;9.860;2023-04-29T10:50:01;15.70;1.00
2523;DHT22;1272;53.332;9.860;2023-04-29T10:52:27;15.60;99.90
2523;DHT22;1272;53.332;9.860;2023-04-29T10:55:02;15.80;99.90
2523;DHT22;1272;53.332;9.860;2023-04-29T10:57:29;16.20;99.90
2523;DHT22;1272;53.332;9.860;2023-04-29T10:59:54;16.30;99.90
2523;DHT22;1272;53.332;9.860;2023-04-29T11:02:20;16.30;99.90
2523;DHT22;1272;53.332;9.860;2023-04-29T11:05:05;16.30;99.90
2523;DHT22;1272;53.332;9.860;2023-04-29T11:07:31;16.30;99.90
2523;DHT22;1272;53.332;9.860;2023-04-29T11:09:57;16.40;99.90
2523;DHT22;1272;53.332;9.860;2023-04-29T11:12:23;16.40;99.90
2523;DHT22;1272;53.332;9.860;2023-04-29T11:14:49;16.20;99.90
2523;DHT22;1272;53.332;9.860;2023-04-29T11:17:16;16.20;99.90
2523;DHT22;1272;53.332;9.860;2023-04-29T11:19:49;16.30;99.90
2523;DHT22;1272;53.332;9.860;2023-04-29T11:22:26;16.40;99.90
2523;DHT22;1272;53.332;9.860;2023-04-29T11:25:04;16.70;99.90
2523;DHT22;1272;53.332;9.860;2023-04-29T11:27:35;16.80;99.90
2523;DHT22;1272;53.332;9.860;2023-04-29T11:30:03;17.10;99.90
2523;DHT22;1272;53.332;9.860;2023-04-29T11:32:40;17.30;99.90
2523;DHT22;1272;53.332;9.860;2023-04-29T11:35:17;17.00;99.90
2523;DHT22;1272;53.332;9.860;2023-04-29T11:37:45;16.80;99.90
2523;DHT22;1272;53.332;9.860;2023-04-29T11:40:12;16.70;99.90
2523;DHT22;1272;53.332;9.860;2023-04-29T11:42:44;16.50;99.90
2523;DHT22;1272;53.332;9.860;2023-04-29T11:45:10;16.40;99.90
2523;DHT22;1272;53.332;9.860;2023-04-29T11:47:36;16.20;99.90
2523;DHT22;1272;53.332;9.860;2023-04-29T11:50:07;15.90;99.90
2523;DHT22;1272;53.332;9.860;2023-04-29T11:52:40;15.70;99.90
2523;DHT22;1272;53.332;9.860;2023-04-29T11:55:09;15.50;99.90
2523;DHT22;1272;53.332;9.860;2023-04-29T11:57:36;15.40;1.00
2523;DHT22;1272;53.332;9.860;2023-04-29T12:00:02;15.30;99.90
2523;DHT22;1272;53.332;9.860;2023-04-29T12:02:32;15.10;99.90
2523;DHT22;1272;53.332;9.860;2023-04-29T12:05:05;15.00;99.90
2523;DHT22;1272;53.332;9.860;2023-04-29T12:07:32;15.20;99.90
2523;DHT22;1272;53.332;9.860;2023-04-29T12:09:58;15.70;99.90
2523;DHT22;1272;53.332;9.860;2023-04-29T12:12:25;16.20;99.90
2523;DHT22;1272;53.332;9.860;2023-04-29T12:14:52;16.80;99.90
2523;DHT22;1272;53.332;9.860;2023-04-29T12:17:18;17.30;99.90
2523;DHT22;1272;53.332;9.860;2023-04-29T12:19:44;17.30;99.90
2523;DHT22;1272;53.332;9.860;2023-04-29T12:22:10;17.10;99.90
2523;DHT22;1272;53.332;9.860;2023-04-29T12:24:37;16.90;99.90
2523;DHT22;1272;53.332;9.860;2023-04-29T12:27:06;16.70;99.90
2523;DHT22;1272;53.332;9.860;2023-04-29T12:29:32;16.40;99.90
2523;DHT22;1272;53.332;9.860;2023-04-29T12:31:59;16.40;99.90
2523;DHT22;1272;53.332;9.860;2023-04-29T12:34:29;16.80;99.90
2523;DHT22;1272;53.332;9.860;2023-04-29T12:36:56;16.90;99.90
2523;DHT22;1272;53.332;9.860;2023-04-29T12:39:23;17.10;55.90
2523;DHT22;1272;53.332;9.860;2023-04-29T12:41:54;17.50;43.50
2523;DHT22;1272;53.332;9.860;2023-04-29T12:44:20;18.00;16.70
2523;DHT22;1272;53.332;9.860;2023-04-29T12:46:46;18.00;6.90
2523;DHT22;1272;53.332;9.860;2023-04-29T12:49:11;17.70;50.90
2523;DHT22;1272;53.332;9.860;2023-04-29T12:51:37;17.40;91.80
2523;DHT22;1272;53.332;9.860;2023-04-29T12:54:03;17.20;57.20
2523;DHT22;1272;53.332;9.860;2023-04-29T12:56:30;17.00;99.90
2523;DHT22;1272;53.332;9.860;2023-04-29T12:59:03;16.70;99.90
2523;DHT22;1272;53.332;9.860;2023-04-29T13:01:29;16.80;99.90
2523;DHT22;1272;53.332;9.860;2023-04-29T13:03:55;17.20;59.70
2523;DHT22;1272;53.332;9.860;2023-04-29T13:06:21;17.60;8.00
2523;DHT22;1272;53.332;9.860;2023-04-29T13:08:47;18.00;1.00
2523;DHT22;1272;53.332;9.860;2023-04-29T13:11:12;18.40;1.00
2523;DHT22;1272;53.332;9.860;2023-04-29T13:13:38;18.20;1.00
2523;DHT22;1272;53.332;9.860;2023-04-29T13:16:05;18.40;1.00
2523;DHT22;1272;53.332;9.860;2023-04-29T13:18:30;18.60;1.00
2523;DHT22;1272;53.332;9.860;2023-04-29T13:20:56;18.90;1.00
2523;DHT22;1272;53.332;9.860;2023-04-29T13:23:22;19.00;1.00
2523;DHT22;1272;53.332;9.860;2023-04-29T13:25:49;19.00;1.00
2523;DHT22;1272;53.332;9.860;2023-04-29T13:28:15;18.80;1.00
2523;DHT22;1272;53.332;9.860;2023-04-29T13:30:41;18.90;1.00
2523;DHT22;1272;53.332;9.860;2023-04-29T13:33:06;19.10;1.00
2523;DHT22;1272;53.332;9.860;2023-04-29T13:35:32;19.30;1.00
2523;DHT22;1272;53.332;9.860;2023-04-29T13:38:00;19.50;1.00
2523;DHT22;1272;53.332;9.860;2023-04-29T13:40:26;19.60;1.00
2523;DHT22;1272;53.332;9.860;2023-04-29T13:42:52;19.70;1.00
2523;DHT22;1272;53.332;9.860;2023-04-29T13:45:18;19.80;1.00
2523;DHT22;1272;53.332;9.860;2023-04-29T13:47:43;19.90;1.00
2523;DHT22;1272;53.332;9.860;2023-04-29T13:50:09;19.70;1.00
2523;DHT22;1272;53.332;9.860;2023-04-29T13:52:35;19.80;1.00
2523;DHT22;1272;53.332;9.860;2023-04-29T13:55:01;19.80;1.00
2523;DHT22;1272;53.332;9.860;2023-04-29T13:57:27;19.90;1.00
2523;DHT22;1272;53.332;9.860;2023-04-29T13:59:52;20.00;1.00
2523;DHT22;1272;53.332;9.860;2023-04-29T14:02:20;20.30;1.00
2523;DHT22;1272;53.332;9.860;2023-04-29T14:04:46;20.40;1.00
2523;DHT22;1272;53.332;9.860;2023-04-29T14:07:12;20.50;1.00
2523;DHT22;1272;53.332;9.860;2023-04-29T14:09:39;20.50;1.00
2523;DHT22;1272;53.332;9.860;2023-04-29T14:12:05;20.20;1.00
2523;DHT22;1272;53.332;9.860;2023-04-29T14:14:31;20.20;1.00
2523;DHT22;1272;53.332;9.860;2023-04-29T14:16:57;20.00;1.00
2523;DHT22;1272;53.332;9.860;2023-04-29T14:19:22;20.10;1.00
2523;DHT22;1272;53.332;9.860;2023-04-29T14:21:48;20.30;1.00
2523;DHT22;1272;53.332;9.860;2023-04-29T14:24:14;20.50;1.00
2523;DHT22;1272;53.332;9.860;2023-04-29T14:26:40;20.10;1.00
2523;DHT22;1272;53.332;9.860;2023-04-29T14:29:06;19.90;1.00
2523;DHT22;1272;53.332;9.860;2023-04-29T14:31:35;20.10;1.00
2523;DHT22;1272;53.332;9.860;2023-04-29T14:34:04;20.40;1.00
2523;DHT22;1272;53.332;9.860;2023-04-29T14:36:30;20.50;1.00
2523;DHT22;1272;53.332;9.860;2023-04-29T14:38:59;20.30;1.00
2523;DHT22;1272;53.332;9.860;2023-04-29T14:41:25;20.30;1.00
2523;DHT22;1272;53.332;9.860;2023-04-29T14:43:51;20.50;1.00
2523;DHT22;1272;53.332;9.860;2023-04-29T14:46:17;20.20;1.00
2523;DHT22;1272;53.332;9.860;2023-04-29T14:48:43;19.90;1.00
2523;DHT22;1272;53.332;9.860;2023-04-29T14:51:09;19.90;1.00
2523;DHT22;1272;53.332;9.860;2023-04-29T14:53:35;20.10;1.00
2523;DHT22;1272;53.332;9.860;2023-04-29T14:56:00;20.10;1.00
2523;DHT22;1272;53.332;9.860;2023-04-29T14:58:26;20.20;1.00
2523;DHT22;1272;53.332;9.860;2023-04-29T15:00:52;20.40;1.00
2523;DHT22;1272;53.332;9.860;2023-04-29T15:03:18;20.50;1.00
2523;DHT22;1272;53.332;9.860;2023-04-29T15:05:43;19.90;1.00
2523;DHT22;1272;53.332;9.860;2023-04-29T15:08:10;19.80;1.00
2523;DHT22;1272;53.332;9.860;2023-04-29T15:10:36;19.80;1.00
2523;DHT22;1272;53.332;9.860;2023-04-29T15:13:01;19.80;1.00
2523;DHT22;1272;53.332;9.860;2023-04-29T15:15:27;19.80;1.00
2523;DHT22;1272;53.332;9.860;2023-04-29T15:17:53;19.90;1.00
2523;DHT22;1272;53.332;9.860;2023-04-29T15:20:19;20.00;1.00
2523;DHT22;1272;53.332;9.860;2023-04-29T15:22:45;20.10;1.00
2523;DHT22;1272;53.332;9.860;2023-04-29T15:25:11;20.10;1.00
2523;DHT22;1272;53.332;9.860;2023-04-29T15:27:37;20.30;1.00
2523;DHT22;1272;53.332;9.860;2023-04-29T15:30:04;20.10;1.00
2523;DHT22;1272;53.332;9.860;2023-04-29T15:32:30;19.60;1.00
2523;DHT22;1272;53.332;9.860;2023-04-29T15:35:00;18.90;1.00
2523;DHT22;1272;53.332;9.860;2023-04-29T15:37:27;18.50;1.00
2523;DHT22;1272;53.332;9.860;2023-04-29T15:39:57;18.50;1.00
2523;DHT22;1272;53.332;9.860;2023-04-29T15:42:23;18.20;1.00
2523;DHT22;1272;53.332;9.860;2023-04-29T15:44:49;18.10;1.00
2523;DHT22;1272;53.332;9.860;2023-04-29T15:47:14;18.20;1.00
2523;DHT22;1272;53.332;9.860;2023-04-29T15:49:42;18.30;1.00
2523;DHT22;1272;53.332;9.860;2023-04-29T15:52:08;18.60;1.00
2523;DHT22;1272;53.332;9.860;2023-04-29T15:54:34;18.40;1.00
2523;DHT22;1272;53.332;9.860;2023-04-29T15:57:00;18.20;1.00
2523;DHT22;1272;53.332;9.860;2023-04-29T15:59:28;18.20;1.00
2523;DHT22;1272;53.332;9.860;2023-04-29T16:01:54;18.40;1.00
2523;DHT22;1272;53.332;9.860;2023-04-29T16:04:20;18.40;1.00
2523;DHT22;1272;53.332;9.860;2023-04-29T16:06:46;18.30;1.00
2523;DHT22;1272;53.332;9.860;2023-04-29T16:09:12;17.80;1.00
2523;DHT22;1272;53.332;9.860;2023-04-29T16:11:37;17.60;1.00
2523;DHT22;1272;53.332;9.860;2023-04-29T16:14:03;17.30;1.00
2523;DHT22;1272;53.332;9.860;2023-04-29T16:16:32;17.20;1.00
2523;DHT22;1272;53.332;9.860;2023-04-29T16:18:58;17.10;1.00
2523;DHT22;1272;53.332;9.860;2023-04-29T16:21:24;16.90;28.80
2523;DHT22;1272;53.332;9.860;2023-04-29T16:23:50;16.50;82.70
2523;DHT22;1272;53.332;9.860;2023-04-29T16:26:16;16.20;99.90
2523;DHT22;1272;53.332;9.860;2023-04-29T16:28:43;15.90;99.90
2523;DHT22;1272;53.332;9.860;2023-04-29T16:31:09;15.80;99.90